Poynette, WI

7:54 PM CDT on July 28, 2016 (GMT -0500)
APRSWXNET | | Change Station

Elev 1076 ft 43.34 °N, 89.39 °W | Updated 20 minutes ago

Overcast
Overcast
71 °F
Feels Like 71 °F
N
6
Wind Variable Wind from ESE
Gusts 9.0 mph

Today
High -- | Low -- °F
--% Chance of Precip.
Yesterday
High -- | Low -- °F
Precip. -- in
Pressure 29.91 in
Visibility 10.0 miles
Clouds Overcast 1900 ft
Dew Point 67 °F
Humidity 86%
Rainfall in
Snow Depth Not available.
5:43 AM 8:23 PM
Waning Crescent, 27% visible
METAR KMSN 282353Z 05009KT 10SM OVC019 23/18 A2992 RMK AO2 SLP129 T02280183 10261 20228 53005
Pressure 29.91 in
Visibility 10.0 miles
Clouds Overcast 1900 ft
Dew Point 67 °F
Humidity 86%
Rainfall in
Snow Depth Not available.
5:43 AM 8:23 PM
Waning Crescent, 27% visible
METAR KMSN 282353Z 05009KT 10SM OVC019 23/18 A2992 RMK AO2 SLP129 T02280183 10261 20228 53005

10-Day Weather Forecast

Almanac

Astronomy

Jul. 28, 2016 Rise Set
Actual Time
Civil Twilight
Nautical Twilight
Astronomical Twilight
Moon
Length of Visible Light
Length of Day
Tomorrow will be .
, % of the Moon is Illuminated

Today's Extremes

State Highs State Lows

Community

WunderPhotos

Upload Photos

1,928,240 photos uploaded!

WunderBlog® & News

Nearby

Air Quality

  Air Quality AQ Index Pollutant
Not available.

Snow Depth

Station Depth Elevation

Earthquake Activity

City Distance Mag. Time & Date
Minimum magnitude displayed is 2.5.

Coastal Water Temperatures

Place Temperature

Stations

Nearby Weather Stations

Station Location Temp. Windchill Dew Point Humidity Wind Precip. Elev Updated Type
                   

Watches & Warnings

There are currently no watches in effect.